Tupelo, MS

3:28 AM CDT on September 03, 2015 (GMT -0500)
Tupelo Regional | | Change Station
CLOSE
Current Station
Airport
Location: Tupelo,
Elevation: 361 ft
Nearby Weather Stations

Elev 361 ft 34.26 °N, 88.77 °W | Updated 35 minutes ago

Clear
Clear
73 °F
Feels Like 73 °F
N
0
Wind Variable Wind from North

Today
High -- | Low -- °F
--% Chance of Precip.
Yesterday
High -- | Low -- °F
Precip. -- in
6:29 AM 7:18 PM
Waning Gibbous, 72% visible
Pressure 29.98 in
Visibility 6.0 miles
Clouds Clear
Dew Point 72 °F
Humidity 96%
Rainfall 0.00 in
Snow Depth Not available.
UV 0 out of 12
Pollen 9.20 out of 12
Air Quality Not available.
Flu Activity Not available.
METAR KTUP 030753Z AUTO 00000KT 6SM BR CLR 23/22 A2999 RMK AO2 SLP150 T02280222
Pressure 29.98 in
Visibility 6.0 miles
Clouds Clear
Dew Point 72 °F
Humidity 96%
Rainfall 0.00 in
Snow Depth Not available.
UV 0 out of 12
Pollen 9.20 out of 12
Air Quality Not available.
Flu Activity Not available.
METAR KTUP 030753Z AUTO 00000KT 6SM BR CLR 23/22 A2999 RMK AO2 SLP150 T02280222
Nowcast | as of 3:25 am CDT on September 3, 2015

Patchy dense fog will be possible early this morning for areas along and east of the Mississippi River. Visibilities at times could drop to a quarter of a mile or less. Travelers should slow their speed...use their low beam headlights...and allow extra time in reaching their destinations this morning.

×

10-Day Weather Forecast

×

Almanac

Astronomy

Sep. 03, 2015 Rise Set
Actual Time
Civil Twilight
Nautical Twilight
Astronomical Twilight
Moon
Length of Visible Light
Length of Day
Tomorrow will be .
, % of the Moon is Illuminated

Today's Extremes

State Highs State Lows

Community

WunderPhotos

Upload Photos

1,851,919 photos uploaded!

WunderBlogs® & News

Nearby

Air Quality

  Air Quality AQ Index Pollutant
Not available.

Snow Depth

Station Depth Elevation

Earthquake Activity

City Distance Mag. Time & Date
Minimum magnitude displayed is 2.5.

Coastal Water Temperatures

Place Temperature

Stations

Nearby Weather Stations

Station Location Temp. Windchill Dew Point Humidity Wind Precip. Elev Updated Type